Spirit of New Zealand — ZMSV — position and weather

sailwx.info

Track history (hours):
 
Tides and Currents Weather Stations Pressure Air Temp Water Temp Dewpoint Dewpoint Depression Visibility Wind Speed Wind Dir Waves Ship Positions

Spirit of New Zealand

Last reported at 2018-Jun-22 01:29 UTC. Time now 2018-Jun-22 01:36 UTC.
Position S 36°33' E 174°49'.

Length 37 m; draft 4.1 m.

Type: Passenger vessel. MMSI: 512201000.

Date/timePositionNaut miles runAvg speedWind from/ knotsBaromVisibWave heightAir tempDewpointWater temp
2018-Jun-22 01:29S 36°33' E 174°49'4 8.6
2018-Jun-22 01:00S 36°34' E 174°54'4 8.8
2018-Jun-22 00:30S 36°35' E 174°59'4 7.1
2018-Jun-21 23:56S 36°37' E 175°04'14 0.7
2018-Jun-21 04:02S 36°51' E 174°58'0 1.1
2018-Jun-21 04:00S 36°51' E 174°58'2 1.1
2018-Jun-21 02:35S 36°51' E 174°57'0 6.6
2018-Jun-21 02:30S 36°50' E 174°56'2 0.9
2018-Jun-21 00:46S 36°49' E 174°56'0 0.0
2018-Jun-21 00:31S 36°49' E 174°56'3 4.6
2018-Jun-20 23:56S 36°49' E 174°53'3 6.4
2018-Jun-20 23:31S 36°50' E 174°49'3 5.6
2018-Jun-20 23:00S 36°50' E 174°46'0 0.0
2018-Jun-20 15:23S 36°51' E 174°46'0 0.0
2018-Jun-20 14:53S 36°51' E 174°46'0 0.0
2018-Jun-20 14:29S 36°51' E 174°46'0 0.0
2018-Jun-20 13:56S 36°51' E 174°46'0 0.0
2018-Jun-20 13:23S 36°51' E 174°46'0 0.0
2018-Jun-20 01:23S 36°51' E 174°46'0 0.0
2018-Jun-20 00:11S 36°51' E 174°46'0 0.0
2018-Jun-19 19:01S 36°51' E 174°46'0 0.0
2018-Jun-19 18:59S 36°51' E 174°46'1 1.3
2018-Jun-19 18:31S 36°50' E 174°46'0 0.5
2018-Jun-19 18:00S 36°50' E 174°46'0 0.0
2018-Jun-19 17:30S 36°50' E 174°46'0 0.1
2018-Jun-19 16:57S 36°50' E 174°46'0 0.1
2018-Jun-19 16:30S 36°50' E 174°46'0 0.0
2018-Jun-19 15:57S 36°50' E 174°46'0 0.0
2018-Jun-19 15:30S 36°50' E 174°46'0 0.0
2018-Jun-19 15:00S 36°50' E 174°46'0 0.0
2018-Jun-19 14:30S 36°50' E 174°46'0 0.0
2018-Jun-19 14:00S 36°50' E 174°46'0 0.1
2018-Jun-19 13:30S 36°50' E 174°46'0 0.1
2018-Jun-19 13:00S 36°50' E 174°46'0 0.0
2018-Jun-19 12:30S 36°50' E 174°46'0 0.1
2018-Jun-19 12:00S 36°50' E 174°46'0 0.0
2018-Jun-19 11:30S 36°50' E 174°46'0 0.0
2018-Jun-19 11:00S 36°50' E 174°46'0 0.0
2018-Jun-19 10:30S 36°50' E 174°46'0 0.0
2018-Jun-19 10:00S 36°50' E 174°46'0 0.1
2018-Jun-19 09:30S 36°50' E 174°46'0 0.0
2018-Jun-19 09:00S 36°50' E 174°46'0 0.0
2018-Jun-19 08:30S 36°50' E 174°46'0 0.0
2018-Jun-19 07:54S 36°50' E 174°46'0 0.0
2018-Jun-19 07:30S 36°50' E 174°46'0 0.0
2018-Jun-19 07:00S 36°50' E 174°46'0 0.0
2018-Jun-19 06:30S 36°50' E 174°46'0 0.1
2018-Jun-19 05:54S 36°50' E 174°46'0 0.4
2018-Jun-19 05:31S 36°50' E 174°46'0 0.2
2018-Jun-19 05:00S 36°50' E 174°46'1 2.0
2018-Jun-19 04:30S 36°50' E 174°47'3 5.9
2018-Jun-19 04:00S 36°49' E 174°51'2 4.7
2018-Jun-19 03:30S 36°49' E 174°54'3 5.7
2018-Jun-19 02:59S 36°50' E 174°57'0 0.2
2018-Jun-19 00:55S 36°49' E 174°57'3 2.1
2018-Jun-18 23:42S 36°50' E 175°00'2 0.0
2018-Jun-17 04:12S 36°50' E 174°58'2 8.1
2018-Jun-17 03:59S 36°48' E 174°58'4 8.2
2018-Jun-17 03:29S 36°44' E 175°01'4 7.3
2018-Jun-17 02:57S 36°41' E 175°04'4 7.9
2018-Jun-17 02:30S 36°38' E 175°06'4 7.6
2018-Jun-17 02:00S 36°35' E 175°09'4 7.7
2018-Jun-17 01:25S 36°32' E 175°13'3 6.7
2018-Jun-17 00:58S 36°29' E 175°14'3 6.9
2018-Jun-17 00:30S 36°26' E 175°14'4 7.2
2018-Jun-16 23:58S 36°22' E 175°15'5 6.9
2018-Jun-16 23:13S 36°17' E 175°14'  
2018-Jun-14 05:20S 36°05' E 175°15'19 0.7
2018-Jun-13 01:35S 36°22' E 175°03'1 7.1
2018-Jun-13 01:26S 36°23' E 175°02'3 7.1
2018-Jun-13 01:00S 36°25' E 174°59'3 6.9
2018-Jun-13 00:30S 36°27' E 174°56'3 6.5
2018-Jun-13 00:01S 36°28' E 174°52'3 6.3
2018-Jun-12 23:30S 36°29' E 174°49'0 0.5
2018-Jun-12 22:55S 36°29' E 174°48'0 0.0
2018-Jun-12 22:25S 36°29' E 174°48'0 0.0
2018-Jun-12 21:55S 36°29' E 174°48'0 0.0
2018-Jun-12 21:25S 36°29' E 174°48'0 0.0
2018-Jun-12 20:55S 36°29' E 174°48'0 0.0
2018-Jun-12 20:25S 36°29' E 174°48'0 0.0
2018-Jun-12 19:55S 36°29' E 174°48'0 0.0
2018-Jun-12 19:25S 36°29' E 174°48'0 0.0
2018-Jun-12 18:55S 36°29' E 174°48'0 0.0
2018-Jun-12 18:25S 36°29' E 174°48'0 0.0
2018-Jun-12 17:55S 36°29' E 174°48'0 0.0
2018-Jun-12 17:25S 36°29' E 174°48'0 0.0
2018-Jun-12 16:55S 36°29' E 174°48'0 0.0
2018-Jun-12 16:25S 36°29' E 174°48'0 0.0
2018-Jun-12 15:55S 36°29' E 174°48'0 0.0
2018-Jun-12 15:25S 36°29' E 174°48'0 0.0
2018-Jun-12 14:55S 36°29' E 174°48'0 0.0
2018-Jun-12 14:25S 36°29' E 174°48'0 0.1
2018-Jun-12 13:49S 36°29' E 174°48'0 0.0
2018-Jun-12 13:19S 36°29' E 174°48'0 0.0
2018-Jun-12 12:55S 36°29' E 174°48'0 0.0
2018-Jun-12 12:25S 36°29' E 174°48'0 0.0
2018-Jun-12 11:55S 36°29' E 174°48'0 0.0
2018-Jun-12 11:25S 36°29' E 174°48'0 0.0
2018-Jun-12 10:55S 36°29' E 174°48'0 0.0
2018-Jun-12 10:25S 36°29' E 174°48'0 0.0
2018-Jun-12 09:55S 36°29' E 174°48'0 0.0
2018-Jun-12 09:25S 36°29' E 174°48'0 0.0
2018-Jun-12 08:55S 36°29' E 174°48'0 0.0
2018-Jun-12 08:13S 36°29' E 174°48'0 0.0
2018-Jun-12 07:55S 36°29' E 174°48'0 0.0
2018-Jun-12 07:25S 36°29' E 174°48'0 0.0
2018-Jun-12 06:55S 36°29' E 174°48'0 0.0
2018-Jun-12 06:25S 36°29' E 174°48'0 0.0
2018-Jun-12 05:55S 36°29' E 174°48'0 0.0
2018-Jun-12 05:25S 36°29' E 174°48'0 0.0
2018-Jun-12 04:55S 36°29' E 174°48'0 0.2
2018-Jun-12 04:30S 36°29' E 174°48'1 3.0
2018-Jun-12 04:00S 36°30' E 174°49'1 3.0
2018-Jun-12 03:30S 36°31' E 174°49'0 0.4
2018-Jun-12 03:00S 36°31' E 174°49'2 3.7
2018-Jun-12 02:30S 36°30' E 174°49'2 3.0
2018-Jun-12 02:00S 36°28' E 174°49'3 5.9
2018-Jun-12 01:30S 36°26' E 174°47'  
Track history (hours):
 
Tides and Currents Weather Stations Pressure Air Temp Water Temp Dewpoint Dewpoint Depression Visibility Wind Speed Wind Dir Waves Ship Positions

Spirit of New Zealand

Last reported at 2018-Jun-22 01:29 UTC. Time now 2018-Jun-22 01:36 UTC.
Position S 36°33' E 174°49'.

Length 37 m; draft 4.1 m.

Type: Passenger vessel. MMSI: 512201000.

Date/timePositionNaut miles runAvg speedWind from/ knotsBaromVisibWave heightAir tempDewpointWater temp
2018-Jun-22 01:29S 36°33' E 174°49'4 8.6
2018-Jun-22 01:00S 36°34' E 174°54'4 8.8
2018-Jun-22 00:30S 36°35' E 174°59'4 7.1
2018-Jun-21 23:56S 36°37' E 175°04'14 0.7
2018-Jun-21 04:02S 36°51' E 174°58'0 1.1
2018-Jun-21 04:00S 36°51' E 174°58'2 1.1
2018-Jun-21 02:35S 36°51' E 174°57'0 6.6
2018-Jun-21 02:30S 36°50' E 174°56'2 0.9
2018-Jun-21 00:46S 36°49' E 174°56'0 0.0
2018-Jun-21 00:31S 36°49' E 174°56'3 4.6
2018-Jun-20 23:56S 36°49' E 174°53'3 6.4
2018-Jun-20 23:31S 36°50' E 174°49'3 5.6
2018-Jun-20 23:00S 36°50' E 174°46'0 0.0
2018-Jun-20 15:23S 36°51' E 174°46'0 0.0
2018-Jun-20 14:53S 36°51' E 174°46'0 0.0
2018-Jun-20 14:29S 36°51' E 174°46'0 0.0
2018-Jun-20 13:56S 36°51' E 174°46'0 0.0
2018-Jun-20 13:23S 36°51' E 174°46'0 0.0
2018-Jun-20 01:23S 36°51' E 174°46'0 0.0
2018-Jun-20 00:11S 36°51' E 174°46'0 0.0
2018-Jun-19 19:01S 36°51' E 174°46'0 0.0
2018-Jun-19 18:59S 36°51' E 174°46'1 1.3
2018-Jun-19 18:31S 36°50' E 174°46'0 0.5
2018-Jun-19 18:00S 36°50' E 174°46'0 0.0
2018-Jun-19 17:30S 36°50' E 174°46'0 0.1
2018-Jun-19 16:57S 36°50' E 174°46'0 0.1
2018-Jun-19 16:30S 36°50' E 174°46'0 0.0
2018-Jun-19 15:57S 36°50' E 174°46'0 0.0
2018-Jun-19 15:30S 36°50' E 174°46'0 0.0
2018-Jun-19 15:00S 36°50' E 174°46'0 0.0
2018-Jun-19 14:30S 36°50' E 174°46'0 0.0
2018-Jun-19 14:00S 36°50' E 174°46'0 0.1
2018-Jun-19 13:30S 36°50' E 174°46'0 0.1
2018-Jun-19 13:00S 36°50' E 174°46'0 0.0
2018-Jun-19 12:30S 36°50' E 174°46'0 0.1
2018-Jun-19 12:00S 36°50' E 174°46'0 0.0
2018-Jun-19 11:30S 36°50' E 174°46'0 0.0
2018-Jun-19 11:00S 36°50' E 174°46'0 0.0
2018-Jun-19 10:30S 36°50' E 174°46'0 0.0
2018-Jun-19 10:00S 36°50' E 174°46'0 0.1
2018-Jun-19 09:30S 36°50' E 174°46'0 0.0
2018-Jun-19 09:00S 36°50' E 174°46'0 0.0
2018-Jun-19 08:30S 36°50' E 174°46'0 0.0
2018-Jun-19 07:54S 36°50' E 174°46'0 0.0
2018-Jun-19 07:30S 36°50' E 174°46'0 0.0
2018-Jun-19 07:00S 36°50' E 174°46'0 0.0
2018-Jun-19 06:30S 36°50' E 174°46'0 0.1
2018-Jun-19 05:54S 36°50' E 174°46'0 0.4
2018-Jun-19 05:31S 36°50' E 174°46'0 0.2
2018-Jun-19 05:00S 36°50' E 174°46'1 2.0
2018-Jun-19 04:30S 36°50' E 174°47'3 5.9
2018-Jun-19 04:00S 36°49' E 174°51'2 4.7
2018-Jun-19 03:30S 36°49' E 174°54'3 5.7
2018-Jun-19 02:59S 36°50' E 174°57'0 0.2
2018-Jun-19 00:55S 36°49' E 174°57'3 2.1
2018-Jun-18 23:42S 36°50' E 175°00'2 0.0
2018-Jun-17 04:12S 36°50' E 174°58'2 8.1
2018-Jun-17 03:59S 36°48' E 174°58'4 8.2
2018-Jun-17 03:29S 36°44' E 175°01'4 7.3
2018-Jun-17 02:57S 36°41' E 175°04'4 7.9
2018-Jun-17 02:30S 36°38' E 175°06'4 7.6
2018-Jun-17 02:00S 36°35' E 175°09'4 7.7
2018-Jun-17 01:25S 36°32' E 175°13'3 6.7
2018-Jun-17 00:58S 36°29' E 175°14'3 6.9
2018-Jun-17 00:30S 36°26' E 175°14'4 7.2
2018-Jun-16 23:58S 36°22' E 175°15'5 6.9
2018-Jun-16 23:13S 36°17' E 175°14'  
2018-Jun-14 05:20S 36°05' E 175°15'19 0.7
2018-Jun-13 01:35S 36°22' E 175°03'1 7.1
2018-Jun-13 01:26S 36°23' E 175°02'3 7.1
2018-Jun-13 01:00S 36°25' E 174°59'3 6.9
2018-Jun-13 00:30S 36°27' E 174°56'3 6.5
2018-Jun-13 00:01S 36°28' E 174°52'3 6.3
2018-Jun-12 23:30S 36°29' E 174°49'0 0.5
2018-Jun-12 22:55S 36°29' E 174°48'0 0.0
2018-Jun-12 22:25S 36°29' E 174°48'0 0.0
2018-Jun-12 21:55S 36°29' E 174°48'0 0.0
2018-Jun-12 21:25S 36°29' E 174°48'0 0.0
2018-Jun-12 20:55S 36°29' E 174°48'0 0.0
2018-Jun-12 20:25S 36°29' E 174°48'0 0.0
2018-Jun-12 19:55S 36°29' E 174°48'0 0.0
2018-Jun-12 19:25S 36°29' E 174°48'0 0.0
2018-Jun-12 18:55S 36°29' E 174°48'0 0.0
2018-Jun-12 18:25S 36°29' E 174°48'0 0.0
2018-Jun-12 17:55S 36°29' E 174°48'0 0.0
2018-Jun-12 17:25S 36°29' E 174°48'0 0.0
2018-Jun-12 16:55S 36°29' E 174°48'0 0.0
2018-Jun-12 16:25S 36°29' E 174°48'0 0.0
2018-Jun-12 15:55S 36°29' E 174°48'0 0.0
2018-Jun-12 15:25S 36°29' E 174°48'0 0.0
2018-Jun-12 14:55S 36°29' E 174°48'0 0.0
2018-Jun-12 14:25S 36°29' E 174°48'0 0.1
2018-Jun-12 13:49S 36°29' E 174°48'0 0.0
2018-Jun-12 13:19S 36°29' E 174°48'0 0.0
2018-Jun-12 12:55S 36°29' E 174°48'0 0.0
2018-Jun-12 12:25S 36°29' E 174°48'0 0.0
2018-Jun-12 11:55S 36°29' E 174°48'0 0.0
2018-Jun-12 11:25S 36°29' E 174°48'0 0.0
2018-Jun-12 10:55S 36°29' E 174°48'0 0.0
2018-Jun-12 10:25S 36°29' E 174°48'0 0.0
2018-Jun-12 09:55S 36°29' E 174°48'0 0.0
2018-Jun-12 09:25S 36°29' E 174°48'0 0.0
2018-Jun-12 08:55S 36°29' E 174°48'0 0.0
2018-Jun-12 08:13S 36°29' E 174°48'0 0.0
2018-Jun-12 07:55S 36°29' E 174°48'0 0.0
2018-Jun-12 07:25S 36°29' E 174°48'0 0.0
2018-Jun-12 06:55S 36°29' E 174°48'0 0.0
2018-Jun-12 06:25S 36°29' E 174°48'0 0.0
2018-Jun-12 05:55S 36°29' E 174°48'0 0.0
2018-Jun-12 05:25S 36°29' E 174°48'0 0.0
2018-Jun-12 04:55S 36°29' E 174°48'0 0.2
2018-Jun-12 04:30S 36°29' E 174°48'1 3.0
2018-Jun-12 04:00S 36°30' E 174°49'1 3.0
2018-Jun-12 03:30S 36°31' E 174°49'0 0.4
2018-Jun-12 03:00S 36°31' E 174°49'2 3.7
2018-Jun-12 02:30S 36°30' E 174°49'2 3.0
2018-Jun-12 02:00S 36°28' E 174°49'3 5.9
2018-Jun-12 01:30S 36°26' E 174°47'  

Dump ship's entire track history